sensor_id;sensor_type;location;lat;lon;timestamp;P1;durP1;ratioP1;P2;durP2;ratioP2
56746;SDS011;42623;49.978;9.966;2023-04-06T00:00:05;7.70;;;4.83;;
56746;SDS011;42623;49.978;9.966;2023-04-06T00:00:18;10.74;;;5.34;;
56746;SDS011;42623;49.978;9.966;2023-04-06T00:00:28;11.43;;;6.00;;
56746;SDS011;42623;49.978;9.966;2023-04-06T00:00:39;9.93;;;6.50;;
56746;SDS011;42623;49.978;9.966;2023-04-06T00:00:50;9.68;;;6.18;;
56746;SDS011;42623;49.978;9.966;2023-04-06T00:01:01;10.27;;;6.57;;
56746;SDS011;42623;49.978;9.966;2023-04-06T00:01:11;11.43;;;6.68;;
56746;SDS011;42623;49.978;9.966;2023-04-06T00:01:21;14.37;;;7.60;;
56746;SDS011;42623;49.978;9.966;2023-04-06T00:01:31;14.00;;;6.67;;
56746;SDS011;42623;49.978;9.966;2023-04-06T00:01:41;12.90;;;6.70;;
56746;SDS011;42623;49.978;9.966;2023-04-06T00:01:51;12.60;;;6.73;;
56746;SDS011;42623;49.978;9.966;2023-04-06T00:02:02;13.00;;;7.00;;
56746;SDS011;42623;49.978;9.966;2023-04-06T00:02:12;13.63;;;7.20;;
56746;SDS011;42623;49.978;9.966;2023-04-06T00:02:22;12.93;;;7.57;;
56746;SDS011;42623;49.978;9.966;2023-04-06T00:02:32;12.57;;;7.47;;
56746;SDS011;42623;49.978;9.966;2023-04-06T00:02:42;11.53;;;7.27;;
56746;SDS011;42623;49.978;9.966;2023-04-06T00:02:52;10.10;;;6.67;;
56746;SDS011;42623;49.978;9.966;2023-04-06T00:03:03;11.13;;;6.83;;
56746;SDS011;42623;49.978;9.966;2023-04-06T00:03:13;12.57;;;7.30;;
56746;SDS011;42623;49.978;9.966;2023-04-06T00:03:23;13.70;;;7.77;;
56746;SDS011;42623;49.978;9.966;2023-04-06T00:03:33;14.97;;;8.27;;
56746;SDS011;42623;49.978;9.966;2023-04-06T00:03:44;14.27;;;8.13;;
56746;SDS011;42623;49.978;9.966;2023-04-06T00:03:54;14.13;;;8.15;;
56746;SDS011;42623;49.978;9.966;2023-04-06T00:04:04;11.50;;;7.30;;
56746;SDS011;42623;49.978;9.966;2023-04-06T00:04:14;13.80;;;7.53;;
56746;SDS011;42623;49.978;9.966;2023-04-06T00:04:25;14.65;;;7.07;;
56746;SDS011;42623;49.978;9.966;2023-04-06T00:04:35;15.10;;;6.73;;
56746;SDS011;42623;49.978;9.966;2023-04-06T00:04:45;12.13;;;5.87;;
56746;SDS011;42623;49.978;9.966;2023-04-06T00:04:55;10.82;;;5.88;;
56746;SDS011;42623;49.978;9.966;2023-04-06T00:05:06;11.47;;;6.23;;
56746;SDS011;42623;49.978;9.966;2023-04-06T00:05:16;11.85;;;6.50;;
56746;SDS011;42623;49.978;9.966;2023-04-06T00:05:26;10.33;;;5.87;;
56746;SDS011;42623;49.978;9.966;2023-04-06T00:05:40;9.88;;;5.95;;
56746;SDS011;42623;49.978;9.966;2023-04-06T00:05:50;9.80;;;5.68;;
56746;SDS011;42623;49.978;9.966;2023-04-06T00:06:01;9.20;;;5.83;;
56746;SDS011;42623;49.978;9.966;2023-04-06T00:06:11;7.90;;;5.28;;
56746;SDS011;42623;49.978;9.966;2023-04-06T00:06:21;8.80;;;5.77;;
56746;SDS011;42623;49.978;9.966;2023-04-06T00:06:32;8.67;;;5.63;;
56746;SDS011;42623;49.978;9.966;2023-04-06T00:06:42;8.85;;;5.88;;
56746;SDS011;42623;49.978;9.966;2023-04-06T00:06:52;9.17;;;5.80;;
56746;SDS011;42623;49.978;9.966;2023-04-06T00:07:02;9.23;;;5.50;;
56746;SDS011;42623;49.978;9.966;2023-04-06T00:07:12;9.30;;;4.93;;
56746;SDS011;42623;49.978;9.966;2023-04-06T00:07:23;9.47;;;4.73;;
56746;SDS011;42623;49.978;9.966;2023-04-06T00:07:33;9.50;;;4.90;;
56746;SDS011;42623;49.978;9.966;2023-04-06T00:07:43;9.17;;;5.07;;
56746;SDS011;42623;49.978;9.966;2023-04-06T00:07:53;8.45;;;5.07;;
56746;SDS011;42623;49.978;9.966;2023-04-06T00:08:05;10.35;;;5.43;;
56746;SDS011;42623;49.978;9.966;2023-04-06T00:08:15;11.10;;;5.93;;
56746;SDS011;42623;49.978;9.966;2023-04-06T00:08:26;10.47;;;5.47;;
56746;SDS011;42623;49.978;9.966;2023-04-06T00:08:36;9.18;;;5.43;;
56746;SDS011;42623;49.978;9.966;2023-04-06T00:08:46;8.60;;;4.93;;
56746;SDS011;42623;49.978;9.966;2023-04-06T00:08:56;9.40;;;5.50;;
56746;SDS011;42623;49.978;9.966;2023-04-06T00:09:06;9.93;;;5.30;;
56746;SDS011;42623;49.978;9.966;2023-04-06T00:09:17;10.27;;;5.70;;
56746;SDS011;42623;49.978;9.966;2023-04-06T00:09:27;10.03;;;6.13;;
56746;SDS011;42623;49.978;9.966;2023-04-06T00:09:37;8.90;;;6.17;;
56746;SDS011;42623;49.978;9.966;2023-04-06T00:09:47;8.93;;;5.83;;
56746;SDS011;42623;49.978;9.966;2023-04-06T00:09:57;8.40;;;5.17;;
56746;SDS011;42623;49.978;9.966;2023-04-06T00:10:07;9.27;;;5.57;;
56746;SDS011;42623;49.978;9.966;2023-04-06T00:10:18;9.13;;;5.93;;
56746;SDS011;42623;49.978;9.966;2023-04-06T00:10:28;8.93;;;6.03;;
56746;SDS011;42623;49.978;9.966;2023-04-06T00:10:38;8.17;;;5.47;;
56746;SDS011;42623;49.978;9.966;2023-04-06T00:10:48;8.70;;;5.70;;
56746;SDS011;42623;49.978;9.966;2023-04-06T00:10:58;8.93;;;5.90;;
56746;SDS011;42623;49.978;9.966;2023-04-06T00:11:08;9.30;;;5.90;;
56746;SDS011;42623;49.978;9.966;2023-04-06T00:11:19;9.90;;;5.77;;
56746;SDS011;42623;49.978;9.966;2023-04-06T00:11:29;11.40;;;5.67;;
56746;SDS011;42623;49.978;9.966;2023-04-06T00:11:39;10.43;;;5.37;;
56746;SDS011;42623;49.978;9.966;2023-04-06T00:11:50;9.43;;;4.88;;
56746;SDS011;42623;49.978;9.966;2023-04-06T00:12:00;7.53;;;4.70;;
56746;SDS011;42623;49.978;9.966;2023-04-06T00:12:10;8.03;;;5.17;;
56746;SDS011;42623;49.978;9.966;2023-04-06T00:12:20;8.57;;;5.32;;
56746;SDS011;42623;49.978;9.966;2023-04-06T00:12:30;8.77;;;5.30;;
56746;SDS011;42623;49.978;9.966;2023-04-06T00:12:41;8.27;;;4.77;;
56746;SDS011;42623;49.978;9.966;2023-04-06T00:12:51;7.40;;;4.53;;
56746;SDS011;42623;49.978;9.966;2023-04-06T00:13:01;8.60;;;5.63;;
56746;SDS011;42623;49.978;9.966;2023-04-06T00:13:11;10.70;;;5.97;;
56746;SDS011;42623;49.978;9.966;2023-04-06T00:13:21;11.33;;;6.53;;
56746;SDS011;42623;49.978;9.966;2023-04-06T00:13:31;10.30;;;5.60;;
56746;SDS011;42623;49.978;9.966;2023-04-06T00:13:42;9.03;;;5.73;;
56746;SDS011;42623;49.978;9.966;2023-04-06T00:13:52;8.45;;;5.50;;
56746;SDS011;42623;49.978;9.966;2023-04-06T00:14:02;8.37;;;5.23;;
56746;SDS011;42623;49.978;9.966;2023-04-06T00:14:12;10.17;;;5.37;;
56746;SDS011;42623;49.978;9.966;2023-04-06T00:14:23;10.52;;;5.20;;
56746;SDS011;42623;49.978;9.966;2023-04-06T00:14:33;10.10;;;5.50;;
56746;SDS011;42623;49.978;9.966;2023-04-06T00:14:43;9.32;;;5.50;;
56746;SDS011;42623;49.978;9.966;2023-04-06T00:14:54;9.67;;;5.77;;
56746;SDS011;42623;49.978;9.966;2023-04-06T00:15:04;10.07;;;5.77;;
56746;SDS011;42623;49.978;9.966;2023-04-06T00:15:15;9.20;;;5.82;;
56746;SDS011;42623;49.978;9.966;2023-04-06T00:15:26;9.50;;;5.72;;
56746;SDS011;42623;49.978;9.966;2023-04-06T00:15:36;8.90;;;5.20;;
56746;SDS011;42623;49.978;9.966;2023-04-06T00:15:46;8.33;;;4.90;;
56746;SDS011;42623;49.978;9.966;2023-04-06T00:15:56;8.50;;;5.43;;
56746;SDS011;42623;49.978;9.966;2023-04-06T00:16:06;9.80;;;6.30;;
56746;SDS011;42623;49.978;9.966;2023-04-06T00:16:16;9.53;;;6.33;;
56746;SDS011;42623;49.978;9.966;2023-04-06T00:16:27;9.00;;;6.13;;
56746;SDS011;42623;49.978;9.966;2023-04-06T00:16:37;7.73;;;5.40;;
56746;SDS011;42623;49.978;9.966;2023-04-06T00:16:47;8.70;;;5.17;;
56746;SDS011;42623;49.978;9.966;2023-04-06T00:16:57;9.27;;;4.97;;
56746;SDS011;42623;49.978;9.966;2023-04-06T00:17:07;11.00;;;5.60;;
56746;SDS011;42623;49.978;9.966;2023-04-06T00:17:18;10.48;;;5.72;;
56746;SDS011;42623;49.978;9.966;2023-04-06T00:17:28;10.60;;;6.03;;
56746;SDS011;42623;49.978;9.966;2023-04-06T00:17:38;9.60;;;6.07;;
56746;SDS011;42623;49.978;9.966;2023-04-06T00:17:48;9.60;;;6.00;;
56746;SDS011;42623;49.978;9.966;2023-04-06T00:17:58;9.38;;;5.78;;
56746;SDS011;42623;49.978;9.966;2023-04-06T00:18:09;9.83;;;5.37;;
56746;SDS011;42623;49.978;9.966;2023-04-06T00:18:19;9.50;;;4.73;;
56746;SDS011;42623;49.978;9.966;2023-04-06T00:18:29;9.73;;;4.88;;
56746;SDS011;42623;49.978;9.966;2023-04-06T00:18:40;9.30;;;5.30;;
56746;SDS011;42623;49.978;9.966;2023-04-06T00:18:50;9.05;;;5.70;;
56746;SDS011;42623;49.978;9.966;2023-04-06T00:19:00;8.47;;;5.20;;
56746;SDS011;42623;49.978;9.966;2023-04-06T00:19:10;8.63;;;5.10;;
56746;SDS011;42623;49.978;9.966;2023-04-06T00:19:20;8.13;;;5.10;;
56746;SDS011;42623;49.978;9.966;2023-04-06T00:19:31;7.63;;;5.22;;
56746;SDS011;42623;49.978;9.966;2023-04-06T00:19:41;7.30;;;4.80;;
56746;SDS011;42623;49.978;9.966;2023-04-06T00:19:51;8.67;;;5.37;;
56746;SDS011;42623;49.978;9.966;2023-04-06T00:20:01;8.68;;;5.25;;
56746;SDS011;42623;49.978;9.966;2023-04-06T00:20:12;9.17;;;6.00;;
56746;SDS011;42623;49.978;9.966;2023-04-06T00:20:22;8.47;;;5.57;;
56746;SDS011;42623;49.978;9.966;2023-04-06T00:20:32;9.75;;;6.05;;
56746;SDS011;42623;49.978;9.966;2023-04-06T00:20:42;9.53;;;5.50;;
56746;SDS011;42623;49.978;9.966;2023-04-06T00:20:53;9.27;;;5.43;;
56746;SDS011;42623;49.978;9.966;2023-04-06T00:21:03;8.23;;;5.17;;
56746;SDS011;42623;49.978;9.966;2023-04-06T00:21:13;8.13;;;5.45;;
56746;SDS011;42623;49.978;9.966;2023-04-06T00:21:24;8.07;;;5.18;;
56746;SDS011;42623;49.978;9.966;2023-04-06T00:21:35;8.63;;;5.72;;
56746;SDS011;42623;49.978;9.966;2023-04-06T00:21:45;9.60;;;5.87;;
56746;SDS011;42623;49.978;9.966;2023-04-06T00:21:56;9.98;;;6.22;;
56746;SDS011;42623;49.978;9.966;2023-04-06T00:22:06;9.87;;;5.90;;
56746;SDS011;42623;49.978;9.966;2023-04-06T00:22:16;9.03;;;5.83;;
56746;SDS011;42623;49.978;9.966;2023-04-06T00:22:26;9.53;;;5.47;;
56746;SDS011;42623;49.978;9.966;2023-04-06T00:22:36;11.07;;;5.30;;
56746;SDS011;42623;49.978;9.966;2023-04-06T00:22:46;11.23;;;5.17;;
56746;SDS011;42623;49.978;9.966;2023-04-06T00:22:57;11.63;;;5.53;;
56746;SDS011;42623;49.978;9.966;2023-04-06T00:23:07;10.13;;;5.63;;
56746;SDS011;42623;49.978;9.966;2023-04-06T00:23:17;9.13;;;5.17;;
56746;SDS011;42623;49.978;9.966;2023-04-06T00:23:27;8.48;;;4.90;;
56746;SDS011;42623;49.978;9.966;2023-04-06T00:23:37;8.33;;;5.20;;
56746;SDS011;42623;49.978;9.966;2023-04-06T00:23:47;8.83;;;5.43;;
56746;SDS011;42623;49.978;9.966;2023-04-06T00:23:57;10.03;;;5.77;;
56746;SDS011;42623;49.978;9.966;2023-04-06T00:24:08;10.10;;;5.33;;
56746;SDS011;42623;49.978;9.966;2023-04-06T00:24:18;9.13;;;5.40;;
56746;SDS011;42623;49.978;9.966;2023-04-06T00:24:28;8.23;;;5.10;;
56746;SDS011;42623;49.978;9.966;2023-04-06T00:24:38;9.00;;;5.33;;
56746;SDS011;42623;49.978;9.966;2023-04-06T00:24:48;9.70;;;5.93;;
56746;SDS011;42623;49.978;9.966;2023-04-06T00:24:58;9.48;;;6.13;;
56746;SDS011;42623;49.978;9.966;2023-04-06T00:25:08;8.20;;;5.87;;
56746;SDS011;42623;49.978;9.966;2023-04-06T00:25:20;8.45;;;5.75;;
56746;SDS011;42623;49.978;9.966;2023-04-06T00:25:30;9.27;;;6.03;;
56746;SDS011;42623;49.978;9.966;2023-04-06T00:25:40;9.23;;;5.95;;
56746;SDS011;42623;49.978;9.966;2023-04-06T00:25:50;9.43;;;5.47;;
56746;SDS011;42623;49.978;9.966;2023-04-06T00:26:00;8.67;;;5.20;;
56746;SDS011;42623;49.978;9.966;2023-04-06T00:26:11;8.80;;;4.77;;
56746;SDS011;42623;49.978;9.966;2023-04-06T00:26:21;8.63;;;4.43;;
56746;SDS011;42623;49.978;9.966;2023-04-06T00:26:31;8.50;;;4.20;;
56746;SDS011;42623;49.978;9.966;2023-04-06T00:26:41;8.27;;;4.43;;
56746;SDS011;42623;49.978;9.966;2023-04-06T00:26:51;8.43;;;5.03;;
56746;SDS011;42623;49.978;9.966;2023-04-06T00:27:01;8.37;;;4.97;;
56746;SDS011;42623;49.978;9.966;2023-04-06T00:27:12;9.40;;;5.23;;
56746;SDS011;42623;49.978;9.966;2023-04-06T00:27:22;9.33;;;4.93;;
56746;SDS011;42623;49.978;9.966;2023-04-06T00:27:32;8.93;;;4.87;;
56746;SDS011;42623;49.978;9.966;2023-04-06T00:27:42;8.53;;;4.93;;
56746;SDS011;42623;49.978;9.966;2023-04-06T00:27:52;8.50;;;5.07;;
56746;SDS011;42623;49.978;9.966;2023-04-06T00:28:02;9.53;;;5.50;;
56746;SDS011;42623;49.978;9.966;2023-04-06T00:28:13;9.98;;;5.95;;
56746;SDS011;42623;49.978;9.966;2023-04-06T00:28:23;9.70;;;5.70;;
56746;SDS011;42623;49.978;9.966;2023-04-06T00:28:37;8.75;;;5.20;;
56746;SDS011;42623;49.978;9.966;2023-04-06T00:28:47;8.63;;;5.30;;
56746;SDS011;42623;49.978;9.966;2023-04-06T00:28:57;9.47;;;5.77;;
56746;SDS011;42623;49.978;9.966;2023-04-06T00:29:08;10.32;;;6.28;;
56746;SDS011;42623;49.978;9.966;2023-04-06T00:29:19;9.55;;;5.65;;
56746;SDS011;42623;49.978;9.966;2023-04-06T00:29:29;8.87;;;5.30;;
56746;SDS011;42623;49.978;9.966;2023-04-06T00:29:39;7.82;;;4.70;;
56746;SDS011;42623;49.978;9.966;2023-04-06T00:29:50;8.30;;;5.17;;
56746;SDS011;42623;49.978;9.966;2023-04-06T00:30:00;8.50;;;5.30;;
56746;SDS011;42623;49.978;9.966;2023-04-06T00:30:10;9.60;;;5.17;;
56746;SDS011;42623;49.978;9.966;2023-04-06T00:30:20;9.35;;;4.57;;
56746;SDS011;42623;49.978;9.966;2023-04-06T00:30:30;9.00;;;4.53;;
56746;SDS011;42623;49.978;9.966;2023-04-06T00:30:41;8.20;;;4.87;;
56746;SDS011;42623;49.978;9.966;2023-04-06T00:30:51;8.43;;;5.23;;
56746;SDS011;42623;49.978;9.966;2023-04-06T00:31:02;9.18;;;5.45;;
56746;SDS011;42623;49.978;9.966;2023-04-06T00:31:12;8.23;;;5.10;;
56746;SDS011;42623;49.978;9.966;2023-04-06T00:31:23;8.93;;;5.43;;
56746;SDS011;42623;49.978;9.966;2023-04-06T00:31:33;8.70;;;5.22;;
56746;SDS011;42623;49.978;9.966;2023-04-06T00:31:43;9.30;;;5.43;;
56746;SDS011;42623;49.978;9.966;2023-04-06T00:31:53;8.40;;;5.17;;
56746;SDS011;42623;49.978;9.966;2023-04-06T00:32:03;8.47;;;5.13;;
56746;SDS011;42623;49.978;9.966;2023-04-06T00:32:14;8.48;;;5.05;;
56746;SDS011;42623;49.978;9.966;2023-04-06T00:32:24;8.33;;;4.53;;
56746;SDS011;42623;49.978;9.966;2023-04-06T00:32:34;8.32;;;4.63;;
56746;SDS011;42623;49.978;9.966;2023-04-06T00:32:45;8.27;;;4.80;;
56746;SDS011;42623;49.978;9.966;2023-04-06T00:32:55;8.80;;;5.40;;
56746;SDS011;42623;49.978;9.966;2023-04-06T00:33:05;8.50;;;5.25;;
56746;SDS011;42623;49.978;9.966;2023-04-06T00:33:15;10.00;;;5.30;;
56746;SDS011;42623;49.978;9.966;2023-04-06T00:33:25;9.70;;;5.07;;
56746;SDS011;42623;49.978;9.966;2023-04-06T00:33:35;9.77;;;5.10;;
56746;SDS011;42623;49.978;9.966;2023-04-06T00:33:47;8.60;;;5.13;;
56746;SDS011;42623;49.978;9.966;2023-04-06T00:33:57;8.45;;;5.03;;
56746;SDS011;42623;49.978;9.966;2023-04-06T00:34:08;8.57;;;4.90;;
56746;SDS011;42623;49.978;9.966;2023-04-06T00:34:18;8.70;;;4.70;;
56746;SDS011;42623;49.978;9.966;2023-04-06T00:34:28;8.83;;;4.73;;
56746;SDS011;42623;49.978;9.966;2023-04-06T00:34:38;8.43;;;5.27;;
56746;SDS011;42623;49.978;9.966;2023-04-06T00:34:48;9.20;;;5.40;;
56746;SDS011;42623;49.978;9.966;2023-04-06T00:34:58;10.13;;;5.75;;
56746;SDS011;42623;49.978;9.966;2023-04-06T00:35:09;10.43;;;5.60;;
56746;SDS011;42623;49.978;9.966;2023-04-06T00:35:19;10.07;;;6.17;;
56746;SDS011;42623;49.978;9.966;2023-04-06T00:35:29;9.57;;;5.88;;
56746;SDS011;42623;49.978;9.966;2023-04-06T00:35:40;8.88;;;5.30;;
56746;SDS011;42623;49.978;9.966;2023-04-06T00:35:50;8.40;;;4.97;;
56746;SDS011;42623;49.978;9.966;2023-04-06T00:36:00;8.87;;;4.73;;
56746;SDS011;42623;49.978;9.966;2023-04-06T00:36:10;9.17;;;5.27;;
56746;SDS011;42623;49.978;9.966;2023-04-06T00:36:21;9.77;;;5.47;;
56746;SDS011;42623;49.978;9.966;2023-04-06T00:36:31;9.90;;;5.90;;
56746;SDS011;42623;49.978;9.966;2023-04-06T00:36:41;10.03;;;5.53;;
56746;SDS011;42623;49.978;9.966;2023-04-06T00:36:51;9.40;;;5.30;;
56746;SDS011;42623;49.978;9.966;2023-04-06T00:37:01;8.97;;;5.30;;
56746;SDS011;42623;49.978;9.966;2023-04-06T00:37:11;8.77;;;5.43;;
56746;SDS011;42623;49.978;9.966;2023-04-06T00:37:22;9.10;;;5.60;;
56746;SDS011;42623;49.978;9.966;2023-04-06T00:37:32;9.07;;;5.30;;
56746;SDS011;42623;49.978;9.966;2023-04-06T00:37:42;9.05;;;5.35;;
56746;SDS011;42623;49.978;9.966;2023-04-06T00:37:52;8.70;;;5.00;;
56746;SDS011;42623;49.978;9.966;2023-04-06T00:38:03;9.30;;;5.13;;
56746;SDS011;42623;49.978;9.966;2023-04-06T00:38:13;9.40;;;5.00;;
56746;SDS011;42623;49.978;9.966;2023-04-06T00:38:24;8.63;;;4.75;;
56746;SDS011;42623;49.978;9.966;2023-04-06T00:38:34;7.97;;;4.80;;
56746;SDS011;42623;49.978;9.966;2023-04-06T00:38:44;7.60;;;4.63;;
56746;SDS011;42623;49.978;9.966;2023-04-06T00:38:54;8.70;;;5.20;;
56746;SDS011;42623;49.978;9.966;2023-04-06T00:39:05;9.20;;;5.05;;
56746;SDS011;42623;49.978;9.966;2023-04-06T00:39:15;9.27;;;5.10;;
56746;SDS011;42623;49.978;9.966;2023-04-06T00:39:25;9.73;;;5.30;;
56746;SDS011;42623;49.978;9.966;2023-04-06T00:39:35;9.70;;;5.60;;
56746;SDS011;42623;49.978;9.966;2023-04-06T00:39:45;9.45;;;5.25;;
56746;SDS011;42623;49.978;9.966;2023-04-06T00:39:56;8.77;;;4.83;;
56746;SDS011;42623;49.978;9.966;2023-04-06T00:40:06;9.10;;;4.80;;
56746;SDS011;42623;49.978;9.966;2023-04-06T00:40:16;8.82;;;4.93;;
56746;SDS011;42623;49.978;9.966;2023-04-06T00:40:27;8.43;;;4.83;;
56746;SDS011;42623;49.978;9.966;2023-04-06T00:40:38;7.63;;;4.47;;
56746;SDS011;42623;49.978;9.966;2023-04-06T00:40:49;8.27;;;4.57;;
56746;SDS011;42623;49.978;9.966;2023-04-06T00:40:59;9.20;;;4.40;;
56746;SDS011;42623;49.978;9.966;2023-04-06T00:41:10;8.90;;;4.70;;
56746;SDS011;42623;49.978;9.966;2023-04-06T00:41:20;8.23;;;4.55;;
56746;SDS011;42623;49.978;9.966;2023-04-06T00:41:30;8.20;;;4.60;;
56746;SDS011;42623;49.978;9.966;2023-04-06T00:41:42;9.00;;;4.93;;
56746;SDS011;42623;49.978;9.966;2023-04-06T00:41:55;9.32;;;4.97;;
56746;SDS011;42623;49.978;9.966;2023-04-06T00:42:07;7.57;;;4.50;;
56746;SDS011;42623;49.978;9.966;2023-04-06T00:42:20;8.40;;;4.25;;
56746;SDS011;42623;49.978;9.966;2023-04-06T00:42:35;9.35;;;4.95;;
56746;SDS011;42623;49.978;9.966;2023-04-06T00:42:45;8.45;;;5.57;;
56746;SDS011;42623;49.978;9.966;2023-04-06T00:42:55;8.20;;;5.30;;
56746;SDS011;42623;49.978;9.966;2023-04-06T00:43:06;7.20;;;4.97;;
56746;SDS011;42623;49.978;9.966;2023-04-06T00:43:16;7.60;;;5.23;;
56746;SDS011;42623;49.978;9.966;2023-04-06T00:43:26;9.27;;;6.03;;
56746;SDS011;42623;49.978;9.966;2023-04-06T00:43:36;10.23;;;6.20;;
56746;SDS011;42623;49.978;9.966;2023-04-06T00:43:46;9.90;;;5.63;;
56746;SDS011;42623;49.978;9.966;2023-04-06T00:43:57;9.70;;;5.20;;
56746;SDS011;42623;49.978;9.966;2023-04-06T00:44:07;9.40;;;4.87;;
56746;SDS011;42623;49.978;9.966;2023-04-06T00:44:17;9.60;;;4.93;;
56746;SDS011;42623;49.978;9.966;2023-04-06T00:44:27;9.67;;;5.40;;
56746;SDS011;42623;49.978;9.966;2023-04-06T00:44:38;9.27;;;5.53;;
56746;SDS011;42623;49.978;9.966;2023-04-06T00:44:48;8.97;;;5.40;;
56746;SDS011;42623;49.978;9.966;2023-04-06T00:44:59;8.67;;;4.90;;
56746;SDS011;42623;49.978;9.966;2023-04-06T00:45:09;8.68;;;4.68;;
56746;SDS011;42623;49.978;9.966;2023-04-06T00:45:20;9.07;;;5.00;;
56746;SDS011;42623;49.978;9.966;2023-04-06T00:45:30;8.63;;;4.97;;
56746;SDS011;42623;49.978;9.966;2023-04-06T00:45:40;9.32;;;5.20;;
56746;SDS011;42623;49.978;9.966;2023-04-06T00:45:51;10.03;;;4.90;;
56746;SDS011;42623;49.978;9.966;2023-04-06T00:46:01;9.80;;;5.32;;
56746;SDS011;42623;49.978;9.966;2023-04-06T00:46:11;8.87;;;5.27;;
56746;SDS011;42623;49.978;9.966;2023-04-06T00:46:21;9.43;;;5.77;;
56746;SDS011;42623;49.978;9.966;2023-04-06T00:46:31;10.07;;;5.53;;
56746;SDS011;42623;49.978;9.966;2023-04-06T00:46:42;9.48;;;5.18;;
56746;SDS011;42623;49.978;9.966;2023-04-06T00:46:52;8.43;;;4.83;;
56746;SDS011;42623;49.978;9.966;2023-04-06T00:47:02;8.17;;;4.83;;
56746;SDS011;42623;49.978;9.966;2023-04-06T00:47:12;8.60;;;5.20;;
56746;SDS011;42623;49.978;9.966;2023-04-06T00:47:23;8.57;;;5.00;;
56746;SDS011;42623;49.978;9.966;2023-04-06T00:47:34;7.75;;;4.63;;
56746;SDS011;42623;49.978;9.966;2023-04-06T00:47:45;8.33;;;4.43;;
56746;SDS011;42623;49.978;9.966;2023-04-06T00:47:55;8.63;;;4.63;;
56746;SDS011;42623;49.978;9.966;2023-04-06T00:48:06;9.07;;;4.88;;
56746;SDS011;42623;49.978;9.966;2023-04-06T00:48:17;8.38;;;5.13;;
56746;SDS011;42623;49.978;9.966;2023-04-06T00:48:27;9.43;;;5.90;;
56746;SDS011;42623;49.978;9.966;2023-04-06T00:48:37;10.63;;;6.07;;
56746;SDS011;42623;49.978;9.966;2023-04-06T00:48:47;10.87;;;5.77;;
56746;SDS011;42623;49.978;9.966;2023-04-06T00:48:57;9.83;;;4.97;;
56746;SDS011;42623;49.978;9.966;2023-04-06T00:49:08;8.15;;;4.50;;
56746;SDS011;42623;49.978;9.966;2023-04-06T00:49:18;7.97;;;4.67;;
56746;SDS011;42623;49.978;9.966;2023-04-06T00:49:28;8.00;;;4.73;;
56746;SDS011;42623;49.978;9.966;2023-04-06T00:49:38;8.00;;;4.77;;
56746;SDS011;42623;49.978;9.966;2023-04-06T00:49:48;8.43;;;4.73;;
56746;SDS011;42623;49.978;9.966;2023-04-06T00:49:58;8.23;;;5.10;;
56746;SDS011;42623;49.978;9.966;2023-04-06T00:50:09;8.30;;;5.13;;
56746;SDS011;42623;49.978;9.966;2023-04-06T00:50:19;8.03;;;5.03;;
56746;SDS011;42623;49.978;9.966;2023-04-06T00:50:29;8.93;;;4.88;;
56746;SDS011;42623;49.978;9.966;2023-04-06T00:50:40;9.13;;;5.00;;
56746;SDS011;42623;49.978;9.966;2023-04-06T00:50:50;9.80;;;5.50;;
56746;SDS011;42623;49.978;9.966;2023-04-06T00:51:01;9.73;;;5.77;;
56746;SDS011;42623;49.978;9.966;2023-04-06T00:51:11;10.10;;;5.78;;
56746;SDS011;42623;49.978;9.966;2023-04-06T00:51:22;9.77;;;5.50;;
56746;SDS011;42623;49.978;9.966;2023-04-06T00:51:32;8.80;;;5.05;;
56746;SDS011;42623;49.978;9.966;2023-04-06T00:51:42;9.50;;;5.17;;
56746;SDS011;42623;49.978;9.966;2023-04-06T00:51:52;9.00;;;4.57;;
56746;SDS011;42623;49.978;9.966;2023-04-06T00:52:02;9.20;;;4.75;;
56746;SDS011;42623;49.978;9.966;2023-04-06T00:52:13;8.47;;;4.67;;
56746;SDS011;42623;49.978;9.966;2023-04-06T00:52:23;10.00;;;5.30;;
56746;SDS011;42623;49.978;9.966;2023-04-06T00:52:33;9.67;;;5.03;;
56746;SDS011;42623;49.978;9.966;2023-04-06T00:52:43;9.73;;;5.05;;
56746;SDS011;42623;49.978;9.966;2023-04-06T00:52:54;8.43;;;4.77;;
56746;SDS011;42623;49.978;9.966;2023-04-06T00:53:05;8.00;;;4.90;;
56746;SDS011;42623;49.978;9.966;2023-04-06T00:53:15;8.83;;;4.90;;
56746;SDS011;42623;49.978;9.966;2023-04-06T00:53:26;10.23;;;5.43;;
56746;SDS011;42623;49.978;9.966;2023-04-06T00:53:36;11.88;;;5.68;;
56746;SDS011;42623;49.978;9.966;2023-04-06T00:53:46;11.20;;;6.10;;
56746;SDS011;42623;49.978;9.966;2023-04-06T00:53:56;9.63;;;5.60;;
56746;SDS011;42623;49.978;9.966;2023-04-06T00:54:06;8.13;;;5.10;;
56746;SDS011;42623;49.978;9.966;2023-04-06T00:54:16;8.87;;;5.30;;
56746;SDS011;42623;49.978;9.966;2023-04-06T00:54:27;10.57;;;5.97;;
56746;SDS011;42623;49.978;9.966;2023-04-06T00:54:37;10.57;;;5.73;;
56746;SDS011;42623;49.978;9.966;2023-04-06T00:54:48;9.63;;;5.63;;
56746;SDS011;42623;49.978;9.966;2023-04-06T00:54:58;8.90;;;5.13;;
56746;SDS011;42623;49.978;9.966;2023-04-06T00:55:08;8.30;;;5.37;;
56746;SDS011;42623;49.978;9.966;2023-04-06T00:55:18;8.15;;;5.07;;
56746;SDS011;42623;49.978;9.966;2023-04-06T00:55:29;8.00;;;5.33;;
56746;SDS011;42623;49.978;9.966;2023-04-06T00:55:39;8.53;;;5.53;;
56746;SDS011;42623;49.978;9.966;2023-04-06T00:55:49;9.05;;;5.63;;
56746;SDS011;42623;49.978;9.966;2023-04-06T00:55:59;9.17;;;5.57;;
56746;SDS011;42623;49.978;9.966;2023-04-06T00:56:09;8.43;;;5.10;;
56746;SDS011;42623;49.978;9.966;2023-04-06T00:56:20;8.20;;;4.87;;
56746;SDS011;42623;49.978;9.966;2023-04-06T00:56:31;8.90;;;4.63;;
56746;SDS011;42623;49.978;9.966;2023-04-06T00:56:41;9.43;;;5.03;;
56746;SDS011;42623;49.978;9.966;2023-04-06T00:56:51;9.27;;;5.15;;
56746;SDS011;42623;49.978;9.966;2023-04-06T00:57:02;8.93;;;5.17;;
56746;SDS011;42623;49.978;9.966;2023-04-06T00:57:12;8.40;;;4.83;;
56746;SDS011;42623;49.978;9.966;2023-04-06T00:57:23;8.43;;;5.05;;
56746;SDS011;42623;49.978;9.966;2023-04-06T00:57:33;8.87;;;5.20;;
56746;SDS011;42623;49.978;9.966;2023-04-06T00:57:43;9.30;;;5.40;;
56746;SDS011;42623;49.978;9.966;2023-04-06T00:57:53;9.68;;;5.45;;
56746;SDS011;42623;49.978;9.966;2023-04-06T00:58:03;9.57;;;5.33;;
56746;SDS011;42623;49.978;9.966;2023-04-06T00:58:14;10.43;;;5.40;;
56746;SDS011;42623;49.978;9.966;2023-04-06T00:58:24;12.90;;;4.67;;
56746;SDS011;42623;49.978;9.966;2023-04-06T00:58:35;12.47;;;4.60;;
56746;SDS011;42623;49.978;9.966;2023-04-06T00:58:47;12.52;;;4.65;;
56746;SDS011;42623;49.978;9.966;2023-04-06T00:58:58;8.98;;;4.90;;
56746;SDS011;42623;49.978;9.966;2023-04-06T00:59:08;8.53;;;4.63;;
56746;SDS011;42623;49.978;9.966;2023-04-06T00:59:18;8.00;;;4.63;;
56746;SDS011;42623;49.978;9.966;2023-04-06T00:59:28;8.27;;;4.70;;
56746;SDS011;42623;49.978;9.966;2023-04-06T00:59:38;8.90;;;5.05;;
56746;SDS011;42623;49.978;9.966;2023-04-06T00:59:49;8.53;;;4.87;;
56746;SDS011;42623;49.978;9.966;2023-04-06T00:59:59;8.82;;;5.07;;
56746;SDS011;42623;49.978;9.966;2023-04-06T01:00:10;7.70;;;4.97;;
56746;SDS011;42623;49.978;9.966;2023-04-06T01:00:21;7.90;;;5.03;;
56746;SDS011;42623;49.978;9.966;2023-04-06T01:00:32;8.20;;;5.40;;
56746;SDS011;42623;49.978;9.966;2023-04-06T01:00:42;8.57;;;5.20;;
56746;SDS011;42623;49.978;9.966;2023-04-06T01:00:52;8.33;;;5.27;;
56746;SDS011;42623;49.978;9.966;2023-04-06T01:01:02;8.77;;;4.97;;
56746;SDS011;42623;49.978;9.966;2023-04-06T01:01:12;8.77;;;4.90;;
56746;SDS011;42623;49.978;9.966;2023-04-06T01:01:23;8.73;;;4.63;;
56746;SDS011;42623;49.978;9.966;2023-04-06T01:01:33;8.40;;;4.80;;
56746;SDS011;42623;49.978;9.966;2023-04-06T01:01:43;7.90;;;4.77;;
56746;SDS011;42623;49.978;9.966;2023-04-06T01:01:53;7.63;;;5.07;;
56746;SDS011;42623;49.978;9.966;2023-04-06T01:02:03;8.48;;;5.25;;
56746;SDS011;42623;49.978;9.966;2023-04-06T01:02:14;9.17;;;5.07;;